Time;durP1;ratioP1;P1;durP2;ratioP2;P2;SDS_P1;SDS_P2;PMS_P1;PMS_P2;Temp;Humidity;BMP_temperature;BMP_pressure;BME280_temperature;BME280_humidity;BME280_pressure;Samples;Min_cycle;Max_cycle;Signal;HPM_P1;HPM_P2
2023/04/02 00:24:29;;;;;;;7.88;5.15;;;;;;;;;;1090846;23;20380;-81
2023/04/02 00:47:11;;;;;;;10.38;5.95;;;;;;;;;;5067584;23;20078;-79
2023/04/02 01:48:44;;;;;;;16.58;8.35;;;;;;;;;;5815882;23;20044;-80
2023/04/02 01:51:33;;;;;;;12.65;7.55;;;;;;;;;;4919936;29;20040;-80
2023/04/02 03:38:01;;;;;;;3.58;2.22;;;;;;;;;;4905991;29;20076;-79
2023/04/02 03:41:07;;;;;;;2.92;1.85;;;;;;;;;;5276770;23;20141;-81
2023/04/02 03:46:30;;;;;;;4.60;2.00;;;;;;;;;;5396691;23;20032;-80
2023/04/02 04:24:58;;;;;;;4.17;3.20;;;;;;;;;;4166607;27;20080;-80
2023/04/02 04:33:42;;;;;;;4.97;3.03;;;;;;;;;;4922914;29;20043;-80
2023/04/02 04:36:31;;;;;;;4.60;3.40;;;;;;;;;;4906523;29;20084;-80
2023/04/02 04:39:06;;;;;;;5.38;3.75;;;;;;;;;;4919231;29;20052;-80
2023/04/02 04:45:20;;;;;;;6.15;3.90;;;;;;;;;;4922680;29;20048;-81
2023/04/02 04:53:13;;;;;;;6.93;4.40;;;;;;;;;;5057326;23;20037;-80
2023/04/02 04:55:44;;;;;;;6.90;4.40;;;;;;;;;;4906253;29;20016;-80
2023/04/02 05:06:46;;;;;;;7.57;5.30;;;;;;;;;;1334673;27;20051;-78
2023/04/02 05:23:51;;;;;;;12.10;7.43;;;;;;;;;;5000985;23;20033;-80
2023/04/02 05:26:39;;;;;;;13.88;7.43;;;;;;;;;;4960963;23;20059;-80
2023/04/02 05:37:57;;;;;;;13.25;8.50;;;;;;;;;;5381792;23;20044;-80
2023/04/02 05:48:46;;;;;;;12.60;7.57;;;;;;;;;;4884610;27;20025;-81
2023/04/02 05:51:36;;;;;;;11.30;6.32;;;;;;;;;;4871277;29;20048;-80
2023/04/02 05:57:16;;;;;;;10.23;6.07;;;;;;;;;;5883182;23;20075;-79
2023/04/02 06:32:16;;;;;;;10.95;7.60;;;;;;;;;;4913749;29;20024;-80
2023/04/02 07:01:14;;;;;;;7.32;4.18;;;;;;;;;;5478242;23;20048;-80
2023/04/02 07:06:41;;;;;;;6.05;3.95;;;;;;;;;;5099648;23;20048;-79
2023/04/02 07:09:17;;;;;;;7.53;5.10;;;;;;;;;;4906371;29;20023;-79
2023/04/02 07:11:50;;;;;;;6.40;4.35;;;;;;;;;;5115811;23;20076;-79
2023/04/02 07:22:07;;;;;;;8.40;6.18;;;;;;;;;;1115169;27;20180;-79
2023/04/02 07:24:45;;;;;;;6.57;4.22;;;;;;;;;;4903160;29;20049;-79
2023/04/02 07:27:37;;;;;;;6.22;3.50;;;;;;;;;;4943391;23;20051;-79
2023/04/02 07:33:29;;;;;;;5.10;3.60;;;;;;;;;;4963608;29;20048;-78
2023/04/02 07:36:00;;;;;;;7.45;4.28;;;;;;;;;;4960278;29;20027;-80
2023/04/02 07:38:28;;;;;;;7.68;5.63;;;;;;;;;;4942056;29;20036;-80
2023/04/02 07:41:10;;;;;;;6.50;4.82;;;;;;;;;;4941662;29;20146;-78
2023/04/02 07:43:38;;;;;;;4.90;2.75;;;;;;;;;;4943796;29;20032;-79
2023/04/02 07:46:17;;;;;;;4.55;3.10;;;;;;;;;;4943394;29;20058;-79
2023/04/02 07:48:45;;;;;;;7.28;3.95;;;;;;;;;;4943935;29;20028;-79
2023/04/02 07:54:01;;;;;;;4.38;2.97;;;;;;;;;;4165426;27;20104;-79
2023/04/02 07:56:45;;;;;;;5.90;3.92;;;;;;;;;;4947517;23;20036;-80
2023/04/02 07:59:14;;;;;;;6.38;4.15;;;;;;;;;;4941315;23;20073;-79
2023/04/02 08:02:06;;;;;;;6.95;4.40;;;;;;;;;;4923155;29;20047;-80
2023/04/02 08:05:10;;;;;;;7.95;4.72;;;;;;;;;;5179981;23;20070;-79
2023/04/02 08:19:11;;;;;;;5.68;2.97;;;;;;;;;;4906354;29;20056;-79
2023/04/02 08:21:38;;;;;;;3.53;2.25;;;;;;;;;;4906486;29;20051;-80
2023/04/02 08:24:06;;;;;;;3.38;2.20;;;;;;;;;;4908161;29;20411;-80
2023/04/02 08:27:14;;;;;;;2.90;1.80;;;;;;;;;;4900052;29;20062;-79
2023/04/02 08:32:36;;;;;;;3.00;2.30;;;;;;;;;;5273962;23;20111;-79
2023/04/02 08:37:48;;;;;;;3.25;1.80;;;;;;;;;;4913333;23;20104;-79
2023/04/02 08:40:23;;;;;;;3.50;1.70;;;;;;;;;;4879444;29;20487;-79
2023/04/02 08:43:01;;;;;;;3.25;1.80;;;;;;;;;;4912544;29;20032;-79
2023/04/02 08:45:27;;;;;;;4.00;1.90;;;;;;;;;;4899196;29;20071;-78
2023/04/02 08:47:56;;;;;;;4.53;2.00;;;;;;;;;;4909467;29;20037;-80
2023/04/02 08:50:49;;;;;;;2.22;1.33;;;;;;;;;;4896968;29;20029;-79
2023/04/02 08:53:17;;;;;;;4.30;1.60;;;;;;;;;;4880815;29;20068;-79
2023/04/02 08:55:58;;;;;;;4.82;3.25;;;;;;;;;;4897464;29;20492;-79
2023/04/02 08:58:38;;;;;;;2.42;1.80;;;;;;;;;;4909711;29;20048;-80
2023/04/02 09:01:06;;;;;;;3.55;2.22;;;;;;;;;;4891760;29;20037;-79
2023/04/02 09:03:36;;;;;;;3.25;2.05;;;;;;;;;;4878898;29;20059;-79
2023/04/02 09:06:03;;;;;;;2.47;1.60;;;;;;;;;;4877339;29;20052;-79
2023/04/02 09:08:32;;;;;;;3.10;1.90;;;;;;;;;;4893650;29;20032;-80
2023/04/02 09:11:06;;;;;;;3.17;2.33;;;;;;;;;;4889099;29;20612;-79
2023/04/02 09:13:33;;;;;;;2.60;1.80;;;;;;;;;;4889832;29;20036;-79
2023/04/02 09:16:13;;;;;;;2.58;1.65;;;;;;;;;;4872839;29;20085;-79
2023/04/02 09:18:40;;;;;;;7.78;1.70;;;;;;;;;;4892559;29;20032;-79
2023/04/02 09:21:18;;;;;;;3.92;1.52;;;;;;;;;;4908727;29;20041;-79
2023/04/02 09:23:46;;;;;;;3.83;1.77;;;;;;;;;;4909087;29;20113;-79
2023/04/02 09:26:21;;;;;;;2.42;1.52;;;;;;;;;;4925043;23;20052;-79
2023/04/02 09:28:52;;;;;;;2.83;1.23;;;;;;;;;;4908522;29;20054;-80
2023/04/02 09:31:28;;;;;;;2.15;1.60;;;;;;;;;;4893240;29;20043;-79
2023/04/02 09:33:56;;;;;;;3.83;1.55;;;;;;;;;;4909320;29;20067;-79
2023/04/02 09:36:48;;;;;;;3.22;1.73;;;;;;;;;;4905857;29;20029;-79
2023/04/02 09:39:19;;;;;;;2.20;1.48;;;;;;;;;;4905953;29;20129;-79
2023/04/02 09:41:45;;;;;;;2.40;1.60;;;;;;;;;;4907333;29;20044;-79
2023/04/02 09:44:25;;;;;;;2.70;1.60;;;;;;;;;;4906858;29;20041;-78
2023/04/02 09:47:02;;;;;;;2.55;1.70;;;;;;;;;;4901161;29;20033;-79
2023/04/02 09:49:33;;;;;;;2.38;1.60;;;;;;;;;;4908813;29;20024;-79
2023/04/02 09:52:18;;;;;;;3.85;2.65;;;;;;;;;;4910342;23;20057;-78
2023/04/02 09:55:43;;;;;;;4.07;2.95;;;;;;;;;;4944268;23;20055;-78
2023/04/02 09:58:14;;;;;;;4.32;3.13;;;;;;;;;;4844110;29;20602;-78
2023/04/02 10:00:53;;;;;;;3.95;2.55;;;;;;;;;;4847536;29;20055;-78
2023/04/02 10:06:12;;;;;;;4.05;2.78;;;;;;;;;;4877135;27;20049;-79
2023/04/02 10:08:43;;;;;;;3.10;2.17;;;;;;;;;;4879563;29;20057;-78
2023/04/02 10:17:43;;;;;;;6.85;1.80;;;;;;;;;;4869539;29;20073;-78
2023/04/02 10:20:18;;;;;;;2.70;1.80;;;;;;;;;;4861150;29;20128;-78
2023/04/02 10:22:45;;;;;;;3.13;2.50;;;;;;;;;;4863991;29;20025;-79
2023/04/02 10:25:15;;;;;;;2.92;1.95;;;;;;;;;;4866304;29;20041;-79
2023/04/02 10:27:56;;;;;;;3.67;2.70;;;;;;;;;;4870853;29;20026;-79
2023/04/02 10:30:27;;;;;;;3.00;2.20;;;;;;;;;;4869419;29;20104;-79
2023/04/02 10:33:06;;;;;;;6.80;4.10;;;;;;;;;;4850454;29;20041;-78
2023/04/02 10:35:35;;;;;;;4.15;3.15;;;;;;;;;;4856855;29;20137;-79
2023/04/02 10:38:07;;;;;;;2.00;1.60;;;;;;;;;;4869227;29;20049;-79
2023/04/02 10:40:45;;;;;;;2.35;1.58;;;;;;;;;;4853416;29;20025;-79
2023/04/02 10:43:36;;;;;;;2.20;1.55;;;;;;;;;;4862292;29;20050;-79
2023/04/02 10:49:34;;;;;;;3.85;2.70;;;;;;;;;;4812914;29;20152;-79
2023/04/02 10:52:20;;;;;;;2.10;1.60;;;;;;;;;;4836835;29;20038;-78
2023/04/02 10:54:46;;;;;;;2.80;1.70;;;;;;;;;;4810960;29;20035;-78
2023/04/02 10:57:26;;;;;;;2.60;1.70;;;;;;;;;;4807641;29;20039;-79
2023/04/02 11:00:05;;;;;;;4.25;2.70;;;;;;;;;;4818043;29;20041;-78
2023/04/02 11:02:49;;;;;;;2.20;1.45;;;;;;;;;;4858392;23;20052;-78
2023/04/02 11:05:17;;;;;;;;;;;;;;;;;;4931290;29;20546;-79
2023/04/02 11:07:51;;;;;;;2.08;1.20;;;;;;;;;;4931539;29;19914;-79
2023/04/02 11:10:20;;;;;;;1.23;0.77;;;;;;;;;;4931141;29;20471;-79
2023/04/02 11:12:50;;;;;;;3.22;2.08;;;;;;;;;;4930155;29;20096;-79
2023/04/02 11:15:22;;;;;;;1.40;1.13;;;486.90;1868.80;;;;;;4926343;29;20391;-79
2023/04/02 11:17:48;;;;;;;1.55;1.17;;;486.70;1868.80;;;;;;4920484;29;20059;-78
2023/04/02 11:20:51;;;;;;;4.60;2.22;;;487.20;1868.80;;;;;;4928017;29;20027;-78
2023/04/02 11:23:19;;;;;;;2.00;1.30;;;;;;;;;;4930126;29;20103;-79
2023/04/02 11:25:49;;;;;;;2.03;1.10;;;486.60;1971.20;;;;;;4930762;29;20092;-80
2023/04/02 11:28:30;;;;;;;2.22;1.42;;;;;;;;;;4928320;29;20036;-78
2023/04/02 11:30:56;;;;;;;3.78;1.80;;;;;;;;;;4929537;29;20107;-80
2023/04/02 11:33:41;;;;;;;5.57;2.35;;;;;;;;;;4923810;29;20016;-80
2023/04/02 11:36:45;;;;;;;3.90;2.50;;;435.30;2355.20;;;;;;4921713;29;20074;-80
2023/04/02 11:39:11;;;;;;;9.18;5.60;;;;;;;;;;4920437;29;20031;-79
2023/04/02 11:41:56;;;;;;;7.35;4.80;;;;;;;;;;4919473;29;20035;-79
2023/04/02 11:44:23;;;;;;;7.25;5.10;;;;;;;;;;4927478;29;20040;-78
2023/04/02 11:46:50;;;;;;;5.93;4.55;;;;;;;;;;4931418;29;20103;-78
2023/04/02 11:49:32;;;;;;;6.97;4.70;;;410.50;2355.20;;;;;;4919435;29;20032;-78
2023/04/02 11:51:58;;;;;;;5.85;3.63;;;410.30;2355.20;;;;;;4925774;29;20024;-78
2023/04/02 11:54:33;;;;;;;6.30;4.20;;;409.60;2355.20;;;;;;4933334;29;20026;-78
2023/04/02 11:57:46;;;;;;;6.20;3.50;;;410.50;2355.20;;;;;;4923010;29;20058;-79
2023/04/02 12:00:32;;;;;;;2.50;1.80;;;435.40;2355.20;;;;;;4882731;29;20079;-78
2023/04/02 12:03:18;;;;;;;4.28;2.70;;;435.90;2355.20;;;;;;4884409;29;20531;-78
2023/04/02 12:05:57;;;;;;;3.55;2.30;;;436.10;2355.20;;;;;;4885344;29;20049;-78
2023/04/02 12:09:04;;;;;;;3.05;1.77;;;461.10;2380.80;;;;;;4869640;29;20455;-79
2023/04/02 12:11:39;;;;;;;3.15;2.13;;;461.00;2380.80;;;;;;4885693;29;20183;-78
2023/04/02 12:14:33;;;;;;;3.63;2.13;;;461.30;2380.80;;;;;;4884407;29;20069;-78
2023/04/02 12:16:59;;;;;;;2.40;1.60;;;461.30;2380.80;;;;;;4890082;29;20056;-78
2023/04/02 12:19:26;;;;;;;5.20;2.67;;;461.30;2380.80;;;;;;4903288;29;20152;-78
2023/04/02 12:21:52;;;;;;;6.32;1.73;;;486.40;2380.80;;;;;;4889368;29;20033;-79
2023/04/02 12:24:23;;;;;;;3.08;1.77;;;486.60;2304.00;;;;;;4866663;29;20050;-78
2023/04/02 12:27:13;;;;;;;3.22;1.80;;;486.60;2176.00;;;;;;4866606;29;20101;-78
2023/04/02 12:30:16;;;;;;;2.08;1.48;;;461.30;2380.80;;;;;;4852689;29;20077;-78
2023/04/02 12:32:43;;;;;;;2.80;1.80;;;486.50;2124.80;;;;;;4859625;29;20029;-78
2023/04/02 12:35:31;;;;;;;3.53;1.90;;;486.90;2176.00;;;;;;4868524;29;20032;-79
2023/04/02 12:37:58;;;;;;;2.30;1.50;;;486.40;2176.00;;;;;;4920647;29;20032;-79
2023/04/02 12:40:26;;;;;;;3.58;2.10;;;461.40;2355.20;;;;;;4927249;29;20025;-78
2023/04/02 12:42:53;;;;;;;2.95;1.95;;;461.10;2380.80;;;;;;4927890;29;20172;-79
2023/04/02 12:45:41;;;;;;;9.70;5.68;;;460.90;2380.80;;;;;;4927417;29;20050;-79
2023/04/02 12:48:16;;;;;;;3.75;2.20;;;461.60;2380.80;;;;;;4930194;29;20048;-79
2023/04/02 12:50:49;;;;;;;4.28;2.50;;;486.40;2201.60;;;;;;4929369;29;20052;-78
2023/04/02 12:53:22;;;;;;;4.43;2.42;;;461.40;2201.60;;;;;;4925629;29;20475;-78
2023/04/02 12:55:50;;;;;;;1.90;1.20;;;461.70;2227.20;;;;;;4908023;29;20032;-78
2023/04/02 12:58:40;;;;;;;2.63;1.63;;;486.40;2073.60;;;;;;4908690;29;20033;-79
2023/04/02 13:01:30;;;;;;;4.75;2.83;;;486.60;2099.20;;;;;;4894988;29;20470;-78
2023/04/02 13:04:17;;;;;;;2.13;1.00;;;486.60;2048.00;;;;;;4880555;29;20056;-78
2023/04/02 13:06:50;;;;;;;4.15;2.13;;;487.10;1945.60;;;;;;4887957;29;20025;-79
2023/04/02 13:09:46;;;;;;;4.60;2.25;;;486.70;1920.00;;;;;;4868020;29;20056;-77
2023/04/02 13:12:44;;;;;;;4.97;3.13;;;486.60;1920.00;;;;;;4890762;29;20036;-78
2023/04/02 13:15:35;;;;;;;6.50;4.03;;;486.80;1971.20;;;;;;4804725;29;20049;-79
2023/04/02 13:18:21;;;;;;;7.00;3.90;;;487.10;1920.00;;;;;;4828599;29;20115;-78
2023/04/02 13:21:13;;;;;;;6.38;2.70;;;487.10;1894.40;;;;;;4813922;29;20493;-79
2023/04/02 13:23:39;;;;;;;6.25;3.75;;;487.30;1843.20;;;;;;4827004;29;20027;-79
2023/04/02 13:26:28;;;;;;;6.05;2.25;;;486.90;1894.40;;;;;;4803664;30;20043;-78
2023/04/02 13:28:58;;;;;;;6.03;3.63;;;486.50;1920.00;;;;;;4810575;29;20031;-79
2023/04/02 13:31:35;;;;;;;5.22;3.17;;;461.70;1971.20;;;;;;4825086;29;20186;-79
2023/04/02 13:34:01;;;;;;;5.70;3.08;;;;;;;;;;4809142;29;20054;-80
2023/04/02 13:36:28;;;;;;;7.05;4.50;;;;;;;;;;4816944;29;20057;-80
2023/04/02 13:38:57;;;;;;;4.80;2.80;;;487.20;2304.00;;;;;;4818433;29;20043;-79
2023/04/02 13:41:57;;;;;;;11.52;6.10;;;487.10;1843.20;;;;;;4840356;29;20049;-79
2023/04/02 13:44:30;;;;;;;6.47;2.92;;;486.80;1894.40;;;;;;4808425;29;20502;-80
2023/04/02 13:50:25;;;;;;;11.00;6.07;;;461.50;1971.20;;;;;;4816716;29;20115;-80
2023/04/02 13:52:53;;;;;;;5.57;3.00;;;;;;;;;;4841369;29;20041;-79
2023/04/02 13:55:27;;;;;;;3.05;1.80;;;;;;;;;;4833711;29;20058;-80
2023/04/02 13:57:55;;;;;;;3.95;1.48;;;487.00;1868.80;;;;;;4856872;29;20034;-79
2023/04/02 14:00:22;;;;;;;1.70;1.08;;;487.10;1868.80;;;;;;4853625;29;20147;-79
2023/04/02 14:02:55;;;;;;;1.73;1.10;;;487.10;1843.20;;;;;;4836823;29;20104;-79
2023/04/02 14:05:29;;;;;;;1.13;0.90;;;487.00;1920.00;;;;;;4852676;29;20087;-79
2023/04/02 14:08:24;;;;;;;3.03;1.60;;;487.30;1843.20;;;;;;4839352;29;20038;-79
2023/04/02 14:11:06;;;;;;;3.58;2.15;;;512.10;1766.40;;;;;;4833876;29;20113;-79
2023/04/02 14:14:06;;;;;;;3.42;2.60;;;512.50;1792.00;;;;;;4837584;29;20035;-79
2023/04/02 14:16:50;;;;;;;1.75;1.30;;;512.40;1740.80;;;;;;4839532;29;20050;-79
2023/04/02 14:20:00;;;;;;;1.35;0.95;;;512.00;1817.60;;;;;;4826223;29;20027;-79
2023/04/02 14:23:12;;;;;;;5.50;2.88;;;487.30;1817.60;;;;;;4839652;29;20049;-79
2023/04/02 14:25:52;;;;;;;2.55;1.45;;;487.00;1817.60;;;;;;4836179;29;20042;-79
2023/04/02 14:29:04;;;;;;;3.08;1.90;;;486.90;1792.00;;;;;;4821908;29;20043;-79
2023/04/02 14:34:56;;;;;;;3.10;1.90;;;;;;;;;;4781734;30;20054;-79
2023/04/02 14:37:40;;;;;;;2.83;1.55;;;;;;;;;;4779394;30;20050;-78
2023/04/02 14:40:15;;;;;;;2.70;1.55;;;;;;;;;;4775860;30;20556;-78
2023/04/02 14:42:41;;;;;;;;;;;;;;;;;;4776259;30;20522;-78
2023/04/02 14:45:11;;;;;;;2.42;1.58;;;461.50;1945.60;;;;;;4758279;30;19947;-78
2023/04/02 14:47:52;;;;;;;2.83;1.70;;;461.10;1971.20;;;;;;4762079;30;20101;-79
2023/04/02 14:50:40;;;;;;;3.45;1.88;;;461.20;1971.20;;;;;;4777341;30;20219;-78
2023/04/02 14:53:38;;;;;;;3.40;2.10;;;461.00;2022.40;;;;;;4778598;30;20055;-78
2023/04/02 14:56:09;;;;;;;3.33;1.90;;;461.10;1996.80;;;;;;4759619;30;20067;-78
2023/04/02 14:58:45;;;;;;;4.97;2.78;;;461.10;1996.80;;;;;;4745465;30;20076;-79
2023/04/02 15:01:50;;;;;;;3.88;1.92;;;461.00;1971.20;;;;;;4734530;30;20048;-79
2023/04/02 15:04:19;;;;;;;10.60;5.32;;;;;;;;;;4793255;23;20048;-78
2023/04/02 15:06:51;;;;;;;7.00;3.72;;;;;;;;;;4886816;29;20097;-78
2023/04/02 15:09:37;;;;;;;5.85;3.20;;;;;;;;;;4887462;29;20049;-78
2023/04/02 15:12:09;;;;;;;8.95;4.50;;;;;;;;;;4887078;29;20029;-78
2023/04/02 15:14:44;;;;;;;8.57;4.70;;;461.10;2048.00;;;;;;4887085;29;20025;-79
2023/04/02 15:17:15;;;;;;;10.57;5.05;;;460.90;2022.40;;;;;;4884425;29;20113;-78
2023/04/02 15:19:41;;;;;;;4.03;2.28;;;460.80;2073.60;;;;;;4870725;29;20034;-79
2023/04/02 15:22:21;;;;;;;4.10;2.42;;;436.10;2073.60;;;;;;4890469;29;20029;-78
2023/04/02 15:25:03;;;;;;;8.35;4.82;;;;;;;;;;4899286;29;20048;-77
2023/04/02 15:27:30;;;;;;;6.75;3.70;;;;;;;;;;4885241;29;20032;-78
2023/04/02 15:29:57;;;;;;;4.35;2.50;;;;;;;;;;4885836;29;20507;-79
2023/04/02 15:32:36;;;;;;;3.30;2.10;;;;;;;;;;4891414;29;20388;-78
2023/04/02 15:35:21;;;;;;;6.75;3.55;;;;;;;;;;4897186;29;20029;-78
2023/04/02 15:38:16;;;;;;;5.82;3.65;;;;;;;;;;4905033;29;20049;-79
2023/04/02 15:40:55;;;;;;;8.43;3.50;;;;;;;;;;4834738;29;20409;-79
2023/04/02 15:43:21;;;;;;;6.72;2.97;;;;;;;;;;4836524;29;20027;-78
2023/04/02 15:45:56;;;;;;;5.65;3.10;;;;;;;;;;4839858;29;20050;-79
2023/04/02 15:48:28;;;;;;;5.55;3.28;;;;;;;;;;4837859;29;20042;-77
2023/04/02 15:51:06;;;;;;;8.10;3.80;;;;;;;;;;4836567;29;20041;-80
2023/04/02 15:53:51;;;;;;;5.97;3.22;;;;;;;;;;4836020;29;20618;-78
2023/04/02 15:56:20;;;;;;;12.65;6.95;;;;;;;;;;4819091;29;20395;-78
2023/04/02 15:58:47;;;;;;;76.60;32.85;;;;;;;;;;4831800;29;20042;-78
2023/04/02 16:01:13;;;;;;;49.60;22.98;;;;;;;;;;4827211;29;20030;-77
2023/04/02 16:03:57;;;;;;;18.23;9.85;;;;;;;;;;4825726;29;20046;-77
2023/04/02 16:06:49;;;;;;;10.55;6.22;;;;;;;;;;4810057;29;20378;-77
2023/04/02 16:09:26;;;;;;;11.13;4.85;;;435.40;2278.40;;;;;;4776104;30;20093;-79
2023/04/02 16:12:14;;;;;;;10.50;5.97;;;435.20;2304.00;;;;;;4774041;30;20032;-78
2023/04/02 16:14:43;;;;;;;12.52;7.03;;;410.50;2355.20;;;;;;4761395;30;20043;-78
2023/04/02 16:20:35;;;;;;;8.43;5.07;;;410.30;2355.20;;;;;;4811613;29;20041;-78
2023/04/02 16:23:15;;;;;;;12.90;7.72;;;410.10;2355.20;;;;;;4811191;29;20058;-79
2023/04/02 16:26:04;;;;;;;15.68;8.50;;;410.10;2355.20;;;;;;4797791;29;20520;-78
2023/04/02 16:28:38;;;;;;;14.73;8.43;;;410.10;2355.20;;;;;;4809333;29;20047;-79
2023/04/02 16:34:40;;;;;;;10.05;6.80;;;;;;;;;;4810897;29;20118;-79
2023/04/02 16:37:25;;;;;;;11.07;7.25;;;;;;;;;;4810025;29;20039;-79
2023/04/02 16:39:51;;;;;;;12.07;7.93;;;;;;;;;;4808139;29;20038;-79
2023/04/02 16:42:36;;;;;;;10.35;6.75;;;;;;;;;;4806856;29;20079;-78
2023/04/02 16:45:02;;;;;;;;;;;;;;;;;;4793580;29;20043;-79
2023/04/02 16:47:28;;;;;;;8.15;5.00;;;;;;;;;;4882534;29;19915;-78
2023/04/02 16:49:54;;;;;;;14.85;8.32;;;;;;;;;;4876320;29;20080;-79
2023/04/02 16:52:26;;;;;;;12.45;7.60;;;;;;;;;;4910845;29;20765;-79
2023/04/02 16:54:55;;;;;;;16.75;10.43;;;;;;;;;;4890955;29;20090;-79
2023/04/02 16:57:22;;;;;;;15.23;9.80;;;;;;;;;;4885897;29;20033;-79
2023/04/02 17:00:05;;;;;;;13.43;8.63;;;;;;;;;;4872805;29;20055;-79
2023/04/02 17:02:45;;;;;;;15.02;9.98;;;;;;;;;;4892075;29;20033;-79
2023/04/02 17:05:11;;;;;;;13.50;9.40;;;;;;;;;;4881102;29;20077;-81
2023/04/02 17:07:44;;;;;;;14.90;9.25;;;;;;;;;;4908344;29;20464;-80
2023/04/02 17:10:25;;;;;;;19.33;9.60;;;;;;;;;;4895440;29;20037;-81
2023/04/02 17:13:07;;;;;;;19.05;9.68;;;;;;;;;;4898680;29;20041;-80
2023/04/02 17:15:39;;;;;;;18.48;9.65;;;;;;;;;;4898638;29;20041;-81
2023/04/02 17:18:25;;;;;;;17.60;9.00;;;;;;;;;;4896294;29;20029;-81
2023/04/02 17:20:52;;;;;;;18.75;10.55;;;;;;;;;;4896743;29;20464;-81
2023/04/02 17:23:21;;;;;;;19.17;11.90;;;;;;;;;;4894639;29;20036;-81
2023/04/02 17:25:52;;;;;;;19.05;11.23;;;;;;;;;;4896747;29;20512;-81
2023/04/02 17:28:24;;;;;;;16.33;10.07;;;;;;;;;;4899315;29;20072;-81
2023/04/02 17:31:42;;;;;;;14.07;8.63;;;;;;;;;;4898964;29;20040;-81
2023/04/02 17:34:29;;;;;;;13.55;6.97;;;;;;;;;;4896323;29;20053;-80
2023/04/02 17:37:11;;;;;;;15.30;8.35;;;;;;;;;;4897048;29;20054;-81
2023/04/02 17:39:44;;;;;;;14.15;7.85;;;;;;;;;;4891998;29;20069;-81
2023/04/02 17:42:10;;;;;;;15.00;7.80;;;;;;;;;;4899766;29;20029;-80
2023/04/02 17:44:36;;;;;;;17.05;9.55;;;;;;;;;;4897182;29;20041;-80
2023/04/02 17:47:10;;;;;;;24.70;14.10;;;;;;;;;;4897344;29;20107;-80
2023/04/02 17:49:46;;;;;;;13.10;7.63;;;;;;;;;;4896776;29;20045;-81
2023/04/02 17:52:29;;;;;;;6.05;3.63;;;;;;;;;;4896838;29;20033;-81
2023/04/02 17:55:12;;;;;;;6.65;4.45;;;;;;;;;;4926129;29;20036;-79
2023/04/02 17:57:41;;;;;;;8.00;5.20;;;;;;;;;;4917709;29;20033;-80
2023/04/02 18:00:26;;;;;;;8.70;5.57;;;;;;;;;;4891380;29;20025;-80
2023/04/02 18:06:10;;;;;;;7.45;4.53;;;;;;;;;;4887915;29;20456;-79
2023/04/02 18:08:58;;;;;;;10.23;6.10;;;;;;;;;;4889156;29;20036;-81
2023/04/02 18:11:25;;;;;;;9.75;6.25;;;;;;;;;;4893257;29;20037;-80
2023/04/02 18:14:10;;;;;;;10.85;5.47;;;;;;;;;;4876964;29;20041;-79
2023/04/02 18:20:02;;;;;;;13.68;7.47;;;;;;;;;;4875906;29;20047;-78
2023/04/02 18:22:41;;;;;;;12.43;8.32;;;;;;;;;;4897082;29;20186;-79
2023/04/02 18:25:14;;;;;;;11.32;6.20;;;;;;;;;;4887485;29;20044;-79
2023/04/02 18:27:46;;;;;;;7.40;3.92;;;;;;;;;;4897988;29;20388;-79
2023/04/02 18:30:26;;;;;;;7.80;3.95;;;;;;;;;;4886518;29;20029;-80
2023/04/02 18:33:28;;;;;;;7.20;4.68;;;;;;;;;;4890220;29;20031;-79
2023/04/02 18:36:03;;;;;;;7.85;5.38;;;;;;;;;;4893494;29;20041;-78
2023/04/02 18:38:58;;;;;;;7.38;4.82;;;;;;;;;;4913213;29;20140;-80
2023/04/02 18:41:52;;;;;;;7.95;5.05;;;;;;;;;;4819487;29;20034;-79
2023/04/02 18:44:57;;;;;;;4.93;3.60;;;;;;;;;;4839102;29;20040;-79
2023/04/02 18:50:44;;;;;;;6.28;3.70;;;;;;;;;;4806020;29;20081;-80
2023/04/02 18:53:12;;;;;;;5.57;3.28;;;;;;;;;;4797269;30;20058;-79
2023/04/02 18:55:44;;;;;;;7.55;4.60;;;;;;;;;;4782899;30;20047;-80
2023/04/02 18:58:15;;;;;;;6.93;4.80;;;;;;;;;;4797878;29;20043;-79
2023/04/02 19:00:45;;;;;;;7.25;4.45;;;;;;;;;;4787360;30;20043;-80
2023/04/02 19:06:26;;;;;;;8.02;3.85;;;;;;;;;;4802241;29;20568;-79
2023/04/02 19:08:58;;;;;;;4.95;3.05;;;;;;;;;;4795282;29;20070;-79
2023/04/02 19:11:30;;;;;;;4.90;3.20;;;;;;;;;;4795789;29;20065;-78
2023/04/02 19:14:01;;;;;;;5.30;3.08;;;;;;;;;;4800398;29;20055;-79
2023/04/02 19:25:58;;;;;;;4.63;2.42;;;;;;;;;;4896241;29;20052;-79
2023/04/02 19:28:45;;;;;;;4.15;2.70;;;;;;;;;;4899158;29;20036;-81
2023/04/02 19:31:24;;;;;;;3.90;2.50;;;;;;;;;;4894894;29;20037;-80
2023/04/02 19:34:29;;;;;;;4.32;2.60;;;;;;;;;;4892232;29;20052;-80
2023/04/02 19:37:08;;;;;;;4.57;2.50;;;;;;;;;;4887026;29;20125;-80
2023/04/02 19:39:45;;;;;;;3.75;2.50;;;;;;;;;;4897356;29;20081;-80
2023/04/02 19:42:31;;;;;;;3.85;2.30;;;;;;;;;;4894515;29;20024;-79
2023/04/02 19:45:09;;;;;;;5.35;3.05;;;333.40;2329.60;;;;;;4898140;29;20054;-79
2023/04/02 19:47:37;;;;;;;3.67;2.55;;;333.20;2329.60;;;;;;4890345;29;20073;-79
2023/04/02 19:50:26;;;;;;;4.97;2.90;;;333.10;2329.60;;;;;;4897780;29;20032;-78
2023/04/02 19:53:25;;;;;;;5.75;3.38;;;333.10;2329.60;;;;;;4908329;23;20108;-78
2023/04/02 19:55:51;;;;;;;6.10;3.00;;;333.10;2329.60;;;;;;4887484;29;20070;-80
2023/04/02 19:58:28;;;;;;;4.80;3.30;;;333.00;2329.60;;;;;;4907300;29;20032;-79
2023/04/02 20:00:56;;;;;;;5.63;3.10;;;333.00;2329.60;;;;;;4895198;29;20052;-78
2023/04/02 20:04:05;;;;;;;4.45;3.08;;;332.90;2329.60;;;;;;4903252;29;20493;-78
2023/04/02 20:06:31;;;;;;;9.02;5.60;;;332.90;2329.60;;;;;;4905178;29;20075;-78
2023/04/02 20:08:57;;;;;;;6.60;4.70;;;332.90;2329.60;;;;;;4892330;29;20032;-78
2023/04/02 20:11:30;;;;;;;4.70;3.60;;;332.90;2329.60;;;;;;4906176;29;20085;-78
2023/04/02 20:13:58;;;;;;;4.97;2.72;;;332.80;2329.60;;;;;;4910597;29;20035;-80
2023/04/02 20:16:35;;;;;;;3.95;3.03;;;332.80;2329.60;;;;;;4879456;29;20151;-79
2023/04/02 20:19:07;;;;;;;4.55;3.40;;;308.10;2304.00;;;;;;4898880;29;20028;-79
2023/04/02 20:21:41;;;;;;;4.38;3.00;;;308.00;2304.00;;;;;;4893698;29;20479;-79
2023/04/02 20:24:08;;;;;;;4.07;2.80;;;307.80;2304.00;;;;;;4914044;29;20053;-79
2023/04/02 20:26:35;;;;;;;4.05;3.30;;;308.00;2304.00;;;;;;4902910;29;20072;-79
2023/04/02 20:29:02;;;;;;;6.07;3.47;;;308.00;2304.00;;;;;;4893390;29;20084;-78
2023/04/02 20:31:29;;;;;;;4.53;3.50;;;307.90;2304.00;;;;;;4903198;29;20021;-79
2023/04/02 20:33:57;;;;;;;6.30;4.05;;;308.10;2304.00;;;;;;4891247;29;20041;-80
2023/04/02 20:36:24;;;;;;;7.13;4.97;;;307.80;2304.00;;;;;;4894412;29;20069;-79
2023/04/02 20:38:53;;;;;;;9.45;6.07;;;307.30;2304.00;;;;;;4906136;29;20041;-80
2023/04/02 20:41:53;;;;;;;7.35;4.53;;;307.70;2304.00;;;;;;4891669;29;20066;-80
2023/04/02 20:44:27;;;;;;;6.35;4.40;;;307.60;2304.00;;;;;;4912497;29;20039;-79
2023/04/02 20:47:09;;;;;;;7.07;4.78;;;307.50;2304.00;;;;;;4853683;29;20021;-80
2023/04/02 20:49:45;;;;;;;7.68;5.45;;;307.40;2304.00;;;;;;4928279;29;20040;-80
2023/04/02 20:53:16;;;;;;;8.60;5.63;;;307.30;2304.00;;;;;;4893008;29;20039;-81
2023/04/02 21:02:06;;;;;;;8.45;5.63;;;307.20;2304.00;;;;;;5441771;23;20040;-80
2023/04/02 21:04:38;;;;;;;8.55;6.13;;;;;;;;;;4875745;29;20068;-80
2023/04/02 21:07:37;;;;;;;14.15;6.10;;;;;;;;;;4915835;29;20048;-81
2023/04/02 21:22:01;;;;;;;8.02;5.65;;;281.90;2278.40;;;;;;5430424;23;20149;-81
2023/04/02 21:24:46;;;;;;;10.40;6.50;;;256.40;2252.80;;;;;;4878919;29;20044;-80
2023/04/02 22:45:34;;;;;;;10.75;6.60;;;;;;;;;;4882891;29;20061;-80
2023/04/02 22:51:16;;;;;;;11.63;7.15;;;;;;;;;;5787141;23;20117;-81
2023/04/02 22:53:46;;;;;;;11.43;7.45;;;;;;;;;;4865981;29;20046;-80
2023/04/02 22:56:14;;;;;;;12.30;7.47;;;;;;;;;;4866359;29;20018;-80
2023/04/02 23:35:34;;;;;;;11.95;7.38;;;;;;;;;;4993181;23;20078;-78
2023/04/02 23:38:01;;;;;;;10.82;6.85;;;;;;;;;;4920512;29;20061;-79
2023/04/02 23:40:30;;;;;;;11.93;8.00;;;;;;;;;;4901841;29;20054;-79
2023/04/02 23:42:57;;;;;;;13.30;8.38;;;;;;;;;;4886593;29;20037;-80
2023/04/02 23:46:08;;;;;;;11.05;8.00;;;;;;;;;;4899176;29;20045;-80
2023/04/02 23:51:41;;;;;;;11.70;7.55;;;;;;;;;;4889812;29;20080;-78
2023/04/02 23:54:08;;;;;;;11.85;7.50;;;;;;;;;;4893766;29;20048;-79
2023/04/02 23:56:43;;;;;;;13.13;8.13;;;;;;;;;;4950603;23;20049;-79
2023/04/02 23:59:09;;;;;;;13.73;8.85;;;;;;;;;;4945237;29;20012;-79
